Latest Weather Observations for Stawell

IDV60801

Issued at 9:02 pm EDT Sunday 14 February 2016 (issued every 30 minutes, with the page automatically refreshed every 10 minutes)

About weather observations | Map of weather stations | Latest weather observations for VIC | Other Formats
Station Details ID: 079105 Name: STAWELL AERODROME Lat: -37.07 Lon: 142.74 Height: 235.36 m
Data from the previous 72 hours. | See also: Recent months at Stawell
Date/Time
EDT
Temp
°C
App
Temp
°C
Dew
Point
Rel
Hum
%
Delta-T
°C
Wind Press
QNH
hPa
Press
MSL
hPa
Rain
since 9 am
mm
Dir
 
Spd
km/h
Gust
km/h
Spd
kts
Gust
kts
14/09:00pm 19.0 15.9 7.4 47 6.0 SSW 13 20 7 11 1012.7 1012.7 0.0
14/08:30pm 19.6 16.1 7.0 44 6.4 SW 15 22 8 12 1012.2 - 0.0
14/08:00pm 20.6 16.3 7.2 42 6.9 SW 19 28 10 15 1011.7 - 0.0
14/07:30pm 21.5 17.4 8.7 44 6.8 SW 20 33 11 18 1011.3 - 0.0
14/07:00pm 22.8 18.7 6.1 34 8.6 SSW 17 30 9 16 1011.0 - 0.0
14/06:30pm 23.2 18.3 4.2 29 9.4 SSW 19 28 10 15 1010.8 - 0.0
14/06:00pm 24.0 19.9 4.4 28 9.8 SW 15 30 8 16 1010.8 1010.8 0.0
14/05:30pm 24.0 20.5 5.4 30 9.5 SW 13 26 7 14 1010.7 - 0.0
14/05:00pm 23.6 19.2 4.5 29 9.6 WSW 17 32 9 17 1010.9 - 0.0
14/04:30pm 24.1 19.8 6.8 33 9.1 SW 19 28 10 15 1010.9 - 0.0
14/04:00pm 23.3 18.8 6.1 33 8.9 S 19 28 10 15 1011.0 - 0.0
14/03:30pm 22.7 18.2 6.0 34 8.6 SW 19 28 10 15 1011.3 - 0.0
14/03:00pm 23.3 18.3 6.6 34 8.7 W 22 35 12 19 1011.4 1011.4 0.0
14/02:30pm 21.6 18.0 6.7 38 7.7 WSW 15 28 8 15 1011.9 - 0.0
14/02:00pm 21.4 18.0 7.6 41 7.2 WSW 15 26 8 14 1012.1 - 0.0
14/01:30pm 21.0 17.4 6.9 40 7.3 WSW 15 28 8 15 1012.3 - 0.0
14/01:00pm 20.4 16.8 8.4 46 6.3 SW 17 26 9 14 1012.5 - 0.0
14/12:30pm 20.1 17.1 9.1 49 5.9 W 15 26 8 14 1012.7 - 0.0
14/12:00pm 20.0 16.3 8.0 46 6.3 W 17 26 9 14 1012.7 1012.7 0.0
14/11:30am 19.6 15.8 7.7 46 6.2 W 17 24 9 13 1012.7 - 0.0
14/11:00am 18.9 15.9 7.7 48 5.8 WNW 13 20 7 11 1012.7 - 0.0
14/10:30am 18.3 14.8 7.4 49 5.6 SW 15 24 8 13 1012.7 - 0.0
14/10:00am 17.9 15.3 7.6 51 5.3 WSW 11 17 6 9 1012.7 - 0.0
14/09:30am 17.7 15.0 9.1 57 4.5 WSW 13 24 7 13 1012.8 - 0.0
14/09:00am 16.3 13.5 8.5 60 4.0 WSW 13 19 7 10 1012.7 1012.7 0.0
14/08:30am 16.5 14.5 8.5 59 4.1 SW 9 15 5 8 1012.4 - 0.0
14/08:00am 15.6 15.1 9.3 66 3.3 SSW 2 7 1 4 1012.0 - 0.0
14/07:30am 14.7 13.1 8.9 68 3.0 SW 7 13 4 7 1011.4 - 0.0
14/07:00am 14.5 13.8 8.7 68 3.0 SW 2 7 1 4 1011.2 - 0.0
14/06:30am 14.9 13.3 8.8 67 3.1 S 7 15 4 8 1010.7 - 0.0
14/06:00am 14.6 12.7 9.0 69 2.9 WSW 9 17 5 9 1010.4 1010.3 0.0
14/05:30am 13.9 12.3 8.7 71 2.7 WSW 7 11 4 6 1010.0 - 0.0
14/05:00am 13.3 11.7 8.0 70 2.7 SW 6 7 3 4 1009.8 - 0.0
14/04:30am 13.6 11.8 7.8 68 2.9 WSW 7 9 4 5 1009.8 - 0.0
14/04:00am 14.3 12.2 8.3 67 3.0 WSW 9 11 5 6 1009.7 - 0.0
14/03:30am 13.9 11.9 8.5 70 2.7 WSW 9 11 5 6 1009.7 - 0.0
14/03:00am 14.5 14.4 10.9 79 1.9 W 2 6 1 3 1009.7 1009.6 0.0
14/02:30am 14.9 14.5 11.1 78 2.0 SSW 4 6 2 3 1009.8 - 0.0
14/02:00am 15.8 15.0 11.6 76 2.3 SSE 7 11 4 6 1010.1 - 0.0
14/01:30am 16.7 14.7 10.1 65 3.5 SW 11 22 6 12 1010.1 - 0.0
14/01:00am 17.1 15.3 10.7 66 3.5 SSW 11 17 6 9 1010.3 - 0.0
14/12:30am 17.7 16.5 11.7 68 3.3 SSW 9 17 5 9 1010.3 - 0.0
14/12:00am 18.2 18.0 13.5 74 2.7 SSW 7 13 4 7 1010.4 1010.3 0.0
 
Date/Time
EDT
Temp
°C
App
Temp
°C
Dew
Point
Rel
Hum
%
Delta-T
°C
Wind Press
QNH
hPa
Press
MSL
hPa
Rain
since 9 am
mm
Dir
 
Spd
km/h
Gust
km/h
Spd
kts
Gust
kts
13/11:30pm 18.5 17.2 13.6 73 2.8 S 13 17 7 9 1010.3 - 0.0
13/11:00pm 19.3 17.2 13.5 69 3.3 S 17 20 9 11 1010.2 - 0.0
13/10:30pm 20.2 18.4 13.4 65 3.9 S 15 22 8 12 1010.0 - 0.0
13/10:00pm 20.9 18.2 13.6 63 4.2 S 20 32 11 17 1009.3 - 0.0
13/09:30pm 21.9 20.1 14.5 63 4.4 SE 17 30 9 16 1009.0 - 0.0
13/09:00pm 24.7 21.8 12.3 46 7.2 S 19 28 10 15 1007.9 1007.9 0.0
13/08:30pm 26.9 24.6 10.6 36 9.3 WSW 13 20 7 11 1007.3 - 0.0
13/08:00pm 28.3 25.1 10.0 32 10.4 W 17 26 9 14 1007.0 - 0.0
13/07:30pm 29.3 26.0 9.4 29 11.2 WNW 17 32 9 17 1006.5 - 0.0
13/07:00pm 29.6 25.4 9.7 29 11.3 WNW 22 33 12 18 1006.5 - 0.0
13/06:30pm 30.4 26.5 8.7 26 12.2 WNW 19 32 10 17 1006.4 - 0.0
13/06:00pm 30.6 25.9 7.7 24 12.7 W 22 35 12 19 1006.5 1006.4 0.0
13/05:30pm 30.1 25.8 5.4 21 13.1 W 17 28 9 15 1006.5 - 0.0
13/05:00pm 31.5 26.4 4.3 18 14.3 WNW 20 30 11 16 1006.5 - 0.0
13/04:30pm 31.3 25.5 4.2 18 14.2 W 24 35 13 19 1006.8 - 0.0
13/04:00pm 31.1 25.1 3.2 17 14.3 WNW 24 41 13 22 1006.8 - 0.0
13/03:30pm 31.1 25.8 3.2 17 14.3 WNW 20 33 11 18 1007.2 - 0.0
13/03:02pm 30.8 23.8 2.1 16 14.4 NW 28 46 15 25 1007.4 - 0.0
13/03:00pm 30.8 23.4 2.1 16 14.5 NW 30 46 16 25 1007.4 1007.4 0.0
13/02:52pm 31.2 24.1 1.5 15 14.8 NW 28 46 15 25 1007.4 - 0.0
13/02:30pm 30.1 23.8 1.5 16 14.2 NW 24 37 13 20 1007.7 - 0.0
13/02:00pm 30.4 22.9 0.9 15 14.5 NNW 30 44 16 24 1008.0 - 0.0
13/01:30pm 30.0 23.4 -3.6 11 15.2 NW 22 46 12 25 1008.3 - 0.0
13/01:00pm 28.9 23.1 -4.5 11 14.8 NW 17 24 9 13 1008.7 - 0.0
13/12:30pm 28.3 22.2 -2.7 13 14.1 NNW 20 30 11 16 1009.0 - 0.0
13/12:00pm 28.4 22.4 -1.6 14 13.9 NNW 20 28 11 15 1008.9 1008.8 0.0
13/11:30am 27.6 22.5 -2.3 14 13.6 NW 15 22 8 12 1009.1 - 0.0
13/11:00am 26.3 22.7 2.9 22 11.6 NW 11 17 6 9 1009.5 - 0.0
13/10:30am 25.2 22.5 5.4 28 10.2 NNW 9 15 5 8 1009.3 - 0.0
13/10:00am 23.9 21.0 6.7 33 9.0 N 11 15 6 8 1009.3 - 0.0
13/09:30am 22.2 19.7 8.3 41 7.4 NE 11 17 6 9 1009.5 - 0.0
13/09:00am 20.2 18.2 8.8 48 6.1 E 9 11 5 6 1009.7 1009.6 0.0
13/08:30am 19.3 17.9 8.9 51 5.5 ENE 6 9 3 5 1009.6 - 0.0
13/08:00am 18.9 16.9 8.6 51 5.4 ENE 9 13 5 7 1009.3 - 0.0
13/07:30am 17.7 16.1 8.0 53 5.0 NNE 6 9 3 5 1009.3 - 0.0
13/07:00am 16.6 15.0 8.6 59 4.1 NNE 7 9 4 5 1008.9 - 0.0
13/06:30am 16.2 14.8 8.9 62 3.8 NNE 6 9 3 5 1008.7 - 0.0
13/06:00am 15.7 14.3 8.9 64 3.5 ENE 6 7 3 4 1008.4 1008.4 0.0
13/05:30am 17.0 16.0 8.7 58 4.3 ENE 4 6 2 3 1008.7 - 0.0
13/05:00am 15.1 13.6 9.0 67 3.2 ENE 7 9 4 5 1008.3 - 0.0
13/04:30am 15.7 14.1 8.9 64 3.5 E 7 7 4 4 1008.5 - 0.0
13/04:00am 15.1 14.9 9.2 68 3.1 CALM 0 0 0 0 1008.7 - 0.0
13/03:30am 16.5 15.4 9.9 65 3.5 ESE 6 11 3 6 1009.0 - 0.0
13/03:00am 17.3 15.3 10.0 62 3.9 E 11 13 6 7 1009.1 1009.0 0.0
13/02:30am 16.8 15.0 8.0 56 4.5 E 7 9 4 5 1009.3 - 0.0
13/02:00am 17.3 16.6 7.1 51 5.2 CALM 0 2 0 1 1009.5 - 0.0
13/01:30am 18.8 17.5 7.6 48 5.8 E 4 9 2 5 1009.7 - 0.0
13/01:00am 19.2 17.2 7.0 45 6.2 SE 7 13 4 7 1009.9 - 0.0
13/12:30am 19.5 18.6 7.6 46 6.2 SSW 2 7 1 4 1010.0 - 0.0
13/12:00am 20.3 17.7 5.9 39 7.3 SW 9 11 5 6 1010.2 1010.1 0.0
 
Date/Time
EDT
Temp
°C
App
Temp
°C
Dew
Point
Rel
Hum
%
Delta-T
°C
Wind Press
QNH
hPa
Press
MSL
hPa
Rain
since 9 am
mm
Dir
 
Spd
km/h
Gust
km/h
Spd
kts
Gust
kts
12/11:30pm 22.0 19.5 5.0 33 8.5 SW 7 13 4 7 1010.2 - 0.0
12/11:00pm 21.4 20.3 5.3 35 8.1 CALM 0 0 0 0 1010.4 - 0.0
12/10:30pm 22.6 21.4 4.6 31 9.0 CALM 0 0 0 0 1010.4 - 0.0
12/10:00pm 24.4 23.0 5.7 30 9.6 SSW 2 6 1 3 1010.5 - 0.0
12/09:30pm 25.0 22.7 4.7 27 10.3 NW 6 6 3 3 1010.5 - 0.0
12/09:00pm 27.2 24.6 4.3 23 11.7 NW 7 9 4 5 1010.3 1010.2 0.0
12/08:30pm 29.3 26.5 3.3 19 13.2 WNW 7 13 4 7 1010.2 - 0.0
12/08:00pm 30.9 28.0 4.6 19 13.8 WNW 9 13 5 7 1010.0 - 0.0
12/07:30pm 31.5 27.4 4.3 18 14.3 NW 15 28 8 15 1009.9 - 0.0
12/07:00pm 31.9 28.6 4.6 18 14.4 NW 11 19 6 10 1009.9 - 0.0
12/06:30pm 32.0 28.7 4.7 18 14.4 SSW 11 20 6 11 1010.0 - 0.0
12/06:00pm 32.1 27.6 4.0 17 14.7 NW 17 30 9 16 1010.3 1010.2 0.0
12/05:30pm 30.7 26.5 3.7 18 13.9 WNW 15 22 8 12 1010.5 - 0.0
12/05:00pm 31.6 26.6 3.6 17 14.5 NW 19 32 10 17 1010.6 - 0.0
12/04:30pm 32.0 28.0 3.1 16 14.9 WNW 13 26 7 14 1010.9 - 0.0
12/04:00pm 31.6 27.0 3.6 17 14.5 NW 17 26 9 14 1011.1 - 0.0
12/03:30pm 31.4 26.3 4.2 18 14.2 NNW 20 32 11 17 1011.5 - 0.0
12/03:00pm 30.9 26.3 3.8 18 14.0 WNW 17 26 9 14 1011.9 1011.9 0.0
12/02:30pm 30.7 26.0 5.2 20 13.5 N 19 30 10 16 1012.2 - 0.0
12/02:00pm 29.4 26.1 7.9 26 11.8 NNW 15 24 8 13 1012.6 - 0.0
12/01:30pm 28.7 24.6 7.9 27 11.4 NNW 19 24 10 13 1013.0 - 0.0
12/01:00pm 27.2 24.2 7.6 29 10.6 W 13 20 7 11 1013.6 - 0.0
12/12:30pm 26.6 25.0 10.3 36 9.2 NW 9 20 5 11 1014.0 - 0.0
12/12:00pm 26.1 25.4 11.4 39 8.4 NNE 6 11 3 6 1014.3 1014.2 0.0
12/11:30am 24.9 24.3 11.8 44 7.5 E 6 9 3 5 1014.6 - 0.0
12/11:00am 23.5 23.4 12.2 49 6.5 SE 4 9 2 5 1014.7 - 0.0
12/10:30am 21.1 20.6 12.0 56 5.2 NNW 6 11 3 6 1014.9 - 0.0
12/10:00am 19.9 19.4 12.2 61 4.3 ESE 6 11 3 6 1015.2 - 0.0
12/09:30am 19.0 18.9 12.0 64 3.9 ESE 4 11 2 6 1015.4 - 0.0
12/09:00am 17.8 16.7 12.0 69 3.2 ESE 9 13 5 7 1015.4 1015.4 0.0
12/08:30am 15.9 15.3 12.3 79 2.0 SW 7 11 4 6 1015.3 - 0.0
12/08:00am 15.0 13.9 12.1 83 1.6 SSW 9 11 5 6 1015.2 - 0.0
12/07:30am 14.1 13.0 12.0 87 1.1 SSW 9 11 5 6 1015.1 - 0.0
12/07:00am 13.7 12.1 11.7 88 1.1 SSW 11 17 6 9 1015.2 - 0.0
12/06:30am 13.8 12.2 11.7 87 1.1 S 11 17 6 9 1014.9 - 0.0
12/06:00am 13.9 12.3 11.6 86 1.2 SSW 11 19 6 10 1014.8 1014.8 0.0
12/05:30am 14.2 13.0 11.7 85 1.4 S 9 15 5 8 1014.5 - 0.0
12/05:00am 14.8 12.9 11.8 82 1.6 S 13 19 7 10 1014.4 - 0.0
12/04:30am 15.1 13.2 11.7 80 1.9 S 13 19 7 10 1014.4 - 0.0
12/04:00am 15.3 13.7 11.7 79 2.0 S 11 19 6 10 1014.5 - 0.0
12/03:30am 15.6 13.3 11.6 77 2.2 S 15 24 8 13 1014.6 - 0.0
12/03:00am 15.9 13.2 11.7 76 2.3 SSE 17 22 9 12 1014.9 1014.9 0.0
12/02:30am 16.1 13.8 11.9 76 2.3 S 15 24 8 13 1015.2 - 0.0
12/02:00am 16.1 12.9 11.9 76 2.3 S 20 32 11 17 1015.3 - 0.0
12/01:30am 16.7 14.0 11.6 72 2.8 S 17 24 9 13 1015.5 - 0.0
12/01:00am 17.0 14.2 11.5 70 3.0 S 17 26 9 14 1015.6 - 0.0
12/12:30am 17.1 14.8 11.6 70 3.0 S 15 24 8 13 1015.7 - 0.0
12/12:00am 17.4 15.0 11.4 68 3.3 S 15 24 8 13 1015.8 1015.8 0.0
 
Date/Time
EDT
Temp
°C
App
Temp
°C
Dew
Point
Rel
Hum
%
Delta-T
°C
Wind Press
QNH
hPa
Press
MSL
hPa
Rain
since 9 am
mm
Dir
 
Spd
km/h
Gust
km/h
Spd
kts
Gust
kts
11/11:30pm 17.6 14.4 11.2 66 3.5 S 19 30 10 16 1016.0 - 0.0
11/11:00pm 17.9 14.4 11.0 64 3.8 S 20 35 11 19 1016.1 - 0.0
11/10:30pm 18.4 14.2 11.2 63 4.0 S 24 41 13 22 1015.7 - 0.0
11/10:24pm 18.5 13.5 11.1 62 4.1 S 28 46 15 25 1015.6 - 0.0
11/10:00pm 19.4 15.2 11.2 59 4.5 S 24 41 13 22 1015.3 - 0.0
11/09:35pm 20.1 14.4 11.3 57 4.9 S 32 50 17 27 1014.9 - 0.0
11/09:30pm 20.3 14.4 11.2 56 5.1 S 33 50 18 27 1014.8 - 0.0

Other Formats:

Comma delimited format used in spreadsheet applications
http://www.bom.gov.au/fwo/IDV60801/IDV60801.94836.axf

JavaScript Object Notation format (JSON) in row-major order
http://www.bom.gov.au/fwo/IDV60801/IDV60801.94836.json